Chinandega, Nicaragua

10:21 AM CST on December 28, 2014 (GMT -0600)
Chinandega | Change Station
CLOSE
Current Station
Personal Weather Station
Location: Chinandega, CHINANDEGA
Elevation: 243 ft
Nearby Weather Stations

Elev 243 ft 12.62 °N, 87.12 °W | Updated 8 minutes ago

Partly Cloudy
Partly Cloudy
91.8 °F
Feels Like 99 °F
N
8.9
Wind Variable Wind from ESE

Today
High -- | Low -- °F
--% Chance of Precip.
Yesterday
High -- | Low -- °F
Precip. -- in
6:08 AM 5:31 PM
Waxing Crescent, 49% visible
Pressure 29.92 in
Visibility 6.2 miles
Clouds Few 2500 ft
Heat Index 99 °F
Dew Point 71 °F
Humidity 51%
Rainfall 0.00 in
Snow Depth Not available.
UV 6 out of 12
Pollen Not available.
Air Quality Not available.
Flu Activity Not available.
METAR MNCH 281600Z 36006KT 9999 FEW025 30/21 Q1013

More Conditions Fewer Conditions

Pressure 29.92 in
Visibility 6.2 miles
Clouds Few 2500 ft
Heat Index 99 °F
Dew Point 71 °F
Humidity 51%
Rainfall 0.00 in
Snow Depth Not available.
UV 6 out of 12
Pollen Not available.
Air Quality Not available.
Flu Activity Not available.
METAR MNCH 281600Z 36006KT 9999 FEW025 30/21 Q1013

More Conditions Fewer Conditions

10-Day Weather Forecast

Almanac

Astronomy

Dec. 28, 2014 Rise Set
Actual Time
Civil Twilight
Nautical Twilight
Astronomical Twilight
Moon
Length of Visible Light
Length of Day
Tomorrow will be .
, % of the Moon is Illuminated

Today's Extremes

Country Highs Country Lows

Community

WunderPhotos

Upload Photos

1,781,323 photos uploaded!

WunderBlogs® & News

Nearby

Air Quality

  Air Quality AQ Index Pollutant
Not available.

Snow Depth

Station Depth Elevation

Earthquake Activity

City Distance Mag. Time & Date
Minimum magnitude displayed is 2.5.

Coastal Water Temperatures

Place Temperature

Nearby Weather Stations